^^
Datos históricos de la estación: Murcia-Puente Tocinos
Diario Informe para Junio 29, 2019 Unidades:  Métrico    Ingés   Ambas
Diario Semanal Mensual Anual
  Máxima: Mínima: Promedio:
Temperatura: 33.2 °C 23.2 °C 27.7 °C
Punto de rocio: 21 °C 14.8 °C 18.3 °C
Humedad: 84% 34.3% 60%
Velocidad viento: 18km/h 0km/h 9km/h
Racha viento: 30.6km/h - -
Viento- - ESE
Presión: 1009.9 hPa 1007.3 hPa -
Precipitación: 0.0 mm    
 
 
Tabla de datos para Junio 29, 2019
Hora Temperatura Punto de rocio Presión Viento Velocidad viento Racha viento Humedad Intensidad lluvia(por hora) Nubes
00:04 24.8 °C 20.5 °C 1009.2 hPa NE 13 km/h 22.5 km/h 77% 0.0 mm
00:09 24.7 °C 20.6 °C 1009.2 hPa NE 12.8 km/h 20.9 km/h 77.6% 0.0 mm
00:14 24.7 °C 20.6 °C 1009.2 hPa NE 12.2 km/h 20.9 km/h 78% 0.0 mm
00:19 24.7 °C 20.6 °C 1009.2 hPa NE 11.9 km/h 19.3 km/h 78.1% 0.0 mm
00:24 24.6 °C 20.7 °C 1009.2 hPa NNE 11.1 km/h 22.2 km/h 79% 0.0 mm
00:29 24.5 °C 20.6 °C 1009.2 hPa NE 11.5 km/h 22.5 km/h 79% 0.0 mm
00:34 24.5 °C 20.8 °C 1009.2 hPa NE 12.2 km/h 22.5 km/h 79.8% 0.0 mm
00:39 24.5 °C 20.8 °C 1009.2 hPa NE 12.1 km/h 22.5 km/h 80% 0.0 mm
00:44 24.4 °C 20.7 °C 1009.2 hPa NE 11.9 km/h 20.9 km/h 80% 0.0 mm
00:49 24.4 °C 20.7 °C 1009.2 hPa NE 11.3 km/h 19.3 km/h 80% 0.0 mm
00:54 24.4 °C 20.7 °C 1009.2 hPa NE 10 km/h 16.1 km/h 80% 0.0 mm
00:59 24.3 °C 20.9 °C 1009.2 hPa NNE 10.1 km/h 18.5 km/h 81% 0.0 mm
01:04 24.3 °C 20.8 °C 1009.2 hPa NE 10.3 km/h 19.3 km/h 81% 0.0 mm
01:09 24.3 °C 20.8 °C 1009.2 hPa NE 10.6 km/h 19.3 km/h 81% 0.0 mm
01:14 24.2 °C 20.8 °C 1009.2 hPa NE 11.1 km/h 19.3 km/h 81.2% 0.0 mm
01:19 24.2 °C 20.9 °C 1009.3 hPa NE 10.9 km/h 16.1 km/h 82% 0.0 mm
01:24 24.2 °C 20.9 °C 1009.3 hPa NE 10.3 km/h 19 km/h 82% 0.0 mm
01:29 24.1 °C 20.8 °C 1009.3 hPa NE 10.3 km/h 19.3 km/h 82% 0.0 mm
01:34 24.1 °C 20.8 °C 1009.3 hPa NE 10.3 km/h 16.1 km/h 82% 0.0 mm
01:39 24.1 °C 20.8 °C 1009.0 hPa NE 9.8 km/h 14.5 km/h 82% 0.0 mm
01:44 24 °C 20.7 °C 1009.0 hPa NE 8.7 km/h 15.6 km/h 82% 0.0 mm
01:49 23.9 °C 20.6 °C 1009.1 hPa NE 8.7 km/h 16.1 km/h 82% 0.0 mm
01:54 23.8 °C 20.6 °C 1009.1 hPa NE 8.7 km/h 17.2 km/h 82.2% 0.0 mm
01:59 23.8 °C 20.7 °C 1009.1 hPa NE 9.3 km/h 17.7 km/h 83% 0.0 mm
02:04 23.8 °C 20.7 °C 1009.1 hPa NE 10.3 km/h 16.1 km/h 83% 0.0 mm
02:09 23.7 °C 20.7 °C 1009.0 hPa NE 9.8 km/h 14.5 km/h 83% 0.0 mm
02:14 23.7 °C 20.7 °C 1009.0 hPa NE 8.7 km/h 13.7 km/h 83% 0.0 mm
02:19 23.7 °C 20.6 °C 1009.0 hPa NE 8.7 km/h 16.7 km/h 83% 0.0 mm
02:24 23.6 °C 20.7 °C 1009.0 hPa NE 8.7 km/h 16.1 km/h 83.6% 0.0 mm
02:29 23.6 °C 20.7 °C 1009.0 hPa NE 8.7 km/h 14.8 km/h 84% 0.0 mm
02:34 23.6 °C 20.7 °C 1009.0 hPa NE 8.7 km/h 14.8 km/h 84% 0.0 mm
02:39 23.5 °C 20.6 °C 1008.8 hPa NE 9 km/h 14.8 km/h 84% 0.0 mm
02:44 23.4 °C 20.6 °C 1008.8 hPa NE 9.5 km/h 14.5 km/h 84% 0.0 mm
02:49 23.4 °C 20.6 °C 1008.8 hPa NE 9.5 km/h 14.5 km/h 84% 0.0 mm
02:54 23.4 °C 20.6 °C 1008.8 hPa NE 9.5 km/h 14.5 km/h 84% 0.0 mm
02:59 23.4 °C 20.6 °C 1008.8 hPa NE 9.1 km/h 13 km/h 84% 0.0 mm
03:04 23.4 °C 20.6 °C 1008.8 hPa NE 8.4 km/h 12.9 km/h 84% 0.0 mm
03:09 23.4 °C 20.6 °C 1008.8 hPa NE 7.9 km/h 11.3 km/h 84% 0.0 mm
03:14 23.4 °C 20.3 °C 1008.8 hPa NE 6.9 km/h 13 km/h 83.1% 0.0 mm
03:19 23.3 °C 20.3 °C 1008.8 hPa NE 7.1 km/h 12.9 km/h 83% 0.0 mm
03:24 23.3 °C 20.1 °C 1008.7 hPa NE 7.6 km/h 11.3 km/h 82.4% 0.0 mm
03:29 23.3 °C 20.1 °C 1008.7 hPa NE 7.4 km/h 11.3 km/h 82% 0.0 mm
03:34 23.3 °C 19.9 °C 1008.7 hPa ENE 6.9 km/h 11.3 km/h 81.2% 0.0 mm
03:39 23.2 °C 19.7 °C 1008.7 hPa NE 6.3 km/h 8.4 km/h 80.6% 0.0 mm
03:44 23.2 °C 19.4 °C 1008.7 hPa Este 5 km/h 9.5 km/h 79.4% 0.0 mm
03:49 23.2 °C 19.2 °C 1008.8 hPa Este 5 km/h 9.7 km/h 78% 0.0 mm
03:54 23.3 °C 18.9 °C 1008.8 hPa Este 5 km/h 8.4 km/h 76.4% 0.0 mm
03:59 23.3 °C 18.5 °C 1008.8 hPa Este 5 km/h 8 km/h 74.6% 0.0 mm
04:04 23.4 °C 18.4 °C 1008.8 hPa Este 5 km/h 8 km/h 73.6% 0.0 mm
04:09 23.4 °C 18.2 °C 1008.8 hPa Este 5 km/h 8.4 km/h 72.4% 0.0 mm
04:14 23.5 °C 18 °C 1008.8 hPa Este 5 km/h 8.4 km/h 71.3% 0.0 mm
04:19 23.5 °C 18 °C 1008.8 hPa ESE 5 km/h 8 km/h 71% 0.0 mm
04:24 23.6 °C 17.9 °C 1008.8 hPa SE 5 km/h 9.3 km/h 70.3% 0.0 mm
04:29 23.6 °C 17.9 °C 1008.8 hPa SE 5 km/h 9.7 km/h 70.3% 0.0 mm
04:34 23.6 °C 18.1 °C 1008.8 hPa SE 5 km/h 8 km/h 71% 0.0 mm
04:39 23.6 °C 18.2 °C 1008.8 hPa Sur 4.3 km/h 9.3 km/h 71.8% 0.0 mm
04:44 23.6 °C 18.3 °C 1008.8 hPa SSE 2.9 km/h 9.7 km/h 72% 0.0 mm
04:49 23.6 °C 18.3 °C 1008.8 hPa SSE 3.5 km/h 8.4 km/h 72% 0.0 mm
04:54 23.6 °C 18.3 °C 1008.7 hPa SSE 5 km/h 8.7 km/h 72.1% 0.0 mm
04:59 23.6 °C 18.5 °C 1008.7 hPa SSO 5 km/h 9.7 km/h 73% 0.0 mm
05:04 23.6 °C 18.6 °C 1008.7 hPa SSO 5 km/h 11.1 km/h 73.9% 0.0 mm
05:09 23.6 °C 18.8 °C 1008.7 hPa SSO 5.2 km/h 11.3 km/h 74.6% 0.0 mm
05:14 23.6 °C 19.1 °C 1008.7 hPa SSO 5.8 km/h 11.3 km/h 76% 0.0 mm
05:19 23.6 °C 19.1 °C 1008.8 hPa SO 6 km/h 11.3 km/h 76% 0.0 mm
05:24 23.6 °C 19.1 °C 1008.8 hPa SSO 6.5 km/h 11.9 km/h 76.2% 0.0 mm
05:29 23.6 °C 19.3 °C 1008.8 hPa SSO 6.3 km/h 11.3 km/h 77% 0.0 mm
05:34 23.5 °C 19.1 °C 1008.8 hPa SSO 5.8 km/h 11.1 km/h 76.4% 0.0 mm
05:39 23.4 °C 19.1 °C 1008.8 hPa SO 5.8 km/h 11.3 km/h 76.7% 0.0 mm
05:44 23.4 °C 19.1 °C 1008.8 hPa SO 5.8 km/h 11.1 km/h 77.1% 0.0 mm
05:49 23.4 °C 19.3 °C 1008.9 hPa SO 5.8 km/h 11.3 km/h 78% 0.0 mm
05:54 23.4 °C 19.3 °C 1008.9 hPa SO 5.8 km/h 9.7 km/h 78% 0.0 mm
05:59 23.4 °C 19.3 °C 1008.9 hPa SO 5.4 km/h 9.7 km/h 78% 0.0 mm
06:04 23.4 °C 19.3 °C 1008.9 hPa OSO 4.6 km/h 10 km/h 77.8% 0.0 mm
06:09 23.4 °C 19.1 °C 1008.9 hPa SO 5 km/h 9.7 km/h 77% 0.0 mm
06:14 23.4 °C 19.1 °C 1008.9 hPa SO 5.8 km/h 9.7 km/h 77% 0.0 mm
06:19 23.4 °C 19.1 °C 1008.9 hPa SO 5.4 km/h 9.7 km/h 77% 0.0 mm
06:24 23.4 °C 19.1 °C 1008.9 hPa OSO 4.7 km/h 9.7 km/h 77% 0.0 mm
06:29 23.4 °C 19 °C 1008.9 hPa SO 4.8 km/h 9.7 km/h 76.6% 0.0 mm
06:34 23.4 °C 18.9 °C 1009.0 hPa SO 5 km/h 11.1 km/h 76% 0.0 mm
06:39 23.4 °C 18.9 °C 1009.0 hPa SO 5 km/h 11.3 km/h 76% 0.0 mm
06:44 23.4 °C 18.9 °C 1009.0 hPa SO 5 km/h 9.5 km/h 76% 0.0 mm
06:49 23.4 °C 18.9 °C 1009.2 hPa SO 4.9 km/h 9.7 km/h 76% 0.0 mm
06:54 23.4 °C 18.9 °C 1009.2 hPa SO 4.7 km/h 8 km/h 76% 0.0 mm
06:59 23.4 °C 18.9 °C 1009.2 hPa SSO 4.7 km/h 8.4 km/h 76% 0.0 mm
07:04 23.3 °C 18.9 °C 1009.2 hPa SSO 4.6 km/h 9.5 km/h 76.3% 0.0 mm
07:09 23.3 °C 19.1 °C 1009.2 hPa SSO 5.2 km/h 11.9 km/h 77% 0.0 mm
07:14 23.3 °C 19 °C 1009.2 hPa SSO 6.5 km/h 11.3 km/h 77% 0.0 mm
07:19 23.2 °C 19.1 °C 1009.4 hPa SO 6.5 km/h 10 km/h 77.7% 0.0 mm
07:24 23.3 °C 19.2 °C 1009.4 hPa SO 6.5 km/h 9.7 km/h 78% 0.0 mm
07:29 23.3 °C 19.2 °C 1009.4 hPa OSO 5.9 km/h 9.7 km/h 78% 0.0 mm
07:34 23.3 °C 19.3 °C 1009.5 hPa OSO 4.7 km/h 7.4 km/h 78% 0.0 mm
07:39 23.4 °C 19.3 °C 1009.5 hPa SO 4.1 km/h 8.7 km/h 78% 0.0 mm
07:44 23.4 °C 19.5 °C 1009.5 hPa SO 2.9 km/h 9.7 km/h 78.7% 0.0 mm
07:49 23.5 °C 19.6 °C 1009.6 hPa SO 2.9 km/h 9.7 km/h 79% 0.0 mm
07:54 23.5 °C 19.7 °C 1009.6 hPa Oeste 2.9 km/h 7.4 km/h 79.4% 0.0 mm
07:59 23.5 °C 19.9 °C 1009.6 hPa Oeste 2.9 km/h 8 km/h 80% 0.0 mm
08:04 23.6 °C 19.8 °C 1009.7 hPa Oeste 2.9 km/h 8 km/h 79.2% 0.0 mm
08:09 23.6 °C 19.7 °C 1009.7 hPa Oeste 2.9 km/h 6.4 km/h 78.9% 0.0 mm
08:14 23.8 °C 19.7 °C 1009.7 hPa Oeste 2.9 km/h 5 km/h 78% 0.0 mm
08:19 23.9 °C 19.6 °C 1009.8 hPa ONO 1.9 km/h 4.8 km/h 76.8% 0.0 mm
08:24 24.1 °C 19.4 °C 1009.8 hPa Calm   5.8 km/h 75% 0.0 mm
08:29 24.1 °C 19.4 °C 1009.8 hPa NE 1 km/h 6.4 km/h 75% 0.0 mm
08:34 24 °C 19.2 °C 1009.8 hPa NE 2.9 km/h 6.4 km/h 74.8% 0.0 mm
08:39 24.1 °C 19.3 °C 1009.8 hPa NE 2.9 km/h 7.4 km/h 74.7% 0.0 mm
08:44 24.3 °C 19.2 °C 1009.8 hPa ESE 2.9 km/h 8 km/h 73.2% 0.0 mm
08:49 24.3 °C 19.2 °C 1009.9 hPa ESE 3.4 km/h 8 km/h 73% 0.0 mm
08:54 24.3 °C 19.4 °C 1009.9 hPa ESE 4.7 km/h 8 km/h 73.9% 0.0 mm
08:59 24.5 °C 19.5 °C 1009.9 hPa ENE 4 km/h 6.4 km/h 73.6% 0.0 mm
09:04 24.8 °C 19.6 °C 1009.9 hPa Este 2.9 km/h 6.4 km/h 73% 0.0 mm
09:09 25.1 °C 19.9 °C 1009.8 hPa Este 2.9 km/h 8.4 km/h 73% 0.0 mm
09:14 25.2 °C 20 °C 1009.8 hPa Sur 2.9 km/h 8.7 km/h 73.1% 0.0 mm
09:19 24.9 °C 20.1 °C 1009.9 hPa Sur 3.8 km/h 9.7 km/h 74.3% 0.0 mm
09:24 24.9 °C 20.2 °C 1009.9 hPa SE 5.8 km/h 9.7 km/h 75% 0.0 mm
09:29 25.2 °C 20.2 °C 1009.9 hPa SSE 4.8 km/h 7.4 km/h 74.3% 0.0 mm
09:34 25.3 °C 20.2 °C 1009.9 hPa SE 2.9 km/h 8 km/h 73.5% 0.0 mm
09:39 25.5 °C 20.3 °C 1009.9 hPa SE 3 km/h 8 km/h 72.9% 0.0 mm
09:44 25.7 °C 20.3 °C 1009.9 hPa ONO 3.2 km/h 8 km/h 72% 0.0 mm
09:49 25.8 °C 20.2 °C 1009.9 hPa Oeste 3.2 km/h 8.4 km/h 71.4% 0.0 mm
09:54 25.8 °C 20.3 °C 1009.9 hPa SO 3.2 km/h 8 km/h 71.4% 0.0 mm
09:59 25.8 °C 20.2 °C 1009.9 hPa SO 3.1 km/h 8 km/h 71% 0.0 mm
10:04 25.8 °C 19.8 °C 1009.9 hPa Oeste 2.9 km/h 8 km/h 69.6% 0.0 mm
10:09 25.9 °C 19.8 °C 1009.9 hPa NNO 3.2 km/h 9.3 km/h 69.2% 0.0 mm
10:14 26 °C 20.1 °C 1009.9 hPa NO 3.9 km/h 9.7 km/h 69.9% 0.0 mm
10:19 26.2 °C 20 °C 1009.9 hPa ONO 3.9 km/h 8.4 km/h 68.4% 0.0 mm
10:24 26.3 °C 20 °C 1009.9 hPa NO 3.9 km/h 8 km/h 68.1% 0.0 mm
10:29 26.6 °C 20 °C 1009.9 hPa NNE 3.6 km/h 7.4 km/h 66.9% 0.0 mm
10:34 26.8 °C 19.8 °C 1009.9 hPa NNE 2.9 km/h 8.4 km/h 65.6% 0.0 mm
10:39 27.1 °C 19.8 °C 1009.8 hPa NNO 3.2 km/h 8 km/h 64.2% 0.0 mm
10:44 27.3 °C 19.6 °C 1009.8 hPa NNE 3.9 km/h 8 km/h 62.9% 0.0 mm
10:49 27.6 °C 19.5 °C 1009.8 hPa NO 3.9 km/h 8 km/h 61.4% 0.0 mm
10:54 27.7 °C 19.6 °C 1009.8 hPa North 3.9 km/h 8 km/h 61.2% 0.0 mm
10:59 27.9 °C 19.4 °C 1009.8 hPa NNE 4.1 km/h 8 km/h 59.8% 0.0 mm
11:04 28.1 °C 19.3 °C 1009.8 hPa Este 4.7 km/h 8 km/h 59% 0.0 mm
11:09 28.2 °C 19.2 °C 1009.8 hPa SSE 4.1 km/h 8 km/h 58.3% 0.0 mm
11:14 28.3 °C 19.2 °C 1009.8 hPa OSO 2.9 km/h 8 km/h 58% 0.0 mm
11:19 28.4 °C 19.2 °C 1009.8 hPa NNE 3.2 km/h 13 km/h 57.4% 0.0 mm
11:24 28.5 °C 19.1 °C 1009.7 hPa NNO 3.9 km/h 13 km/h 57.1% 0.0 mm
11:29 28.3 °C 19 °C 1009.7 hPa NNO 4.4 km/h 11.3 km/h 57.2% 0.0 mm
11:34 28.3 °C 19.2 °C 1009.7 hPa NO 5.8 km/h 11.1 km/h 58% 0.0 mm
11:39 28.5 °C 19.3 °C 1009.7 hPa OSO 5.4 km/h 11.3 km/h 57.8% 0.0 mm
11:44 28.7 °C 19.1 °C 1009.7 hPa SSO 4.7 km/h 13 km/h 56.5% 0.0 mm
11:49 28.8 °C 18.9 °C 1009.7 hPa ENE 5 km/h 12.9 km/h 55.4% 0.0 mm
11:54 29.1 °C 19.2 °C 1009.6 hPa NE 5.8 km/h 11.3 km/h 55.5% 0.0 mm
11:59 29.4 °C 19.4 °C 1009.6 hPa Oeste 4.8 km/h 10 km/h 54.9% 0.0 mm
12:04 29.7 °C 19.5 °C 1009.6 hPa NE 2.9 km/h 11.9 km/h 54.4% 0.0 mm
12:09 29.7 °C 19.3 °C 1009.6 hPa NE 4.2 km/h 16.7 km/h 53.7% 0.0 mm
12:14 29.7 °C 19 °C 1009.6 hPa NE 6.9 km/h 16.1 km/h 53% 0.0 mm
12:19 29.7 °C 19 °C 1009.6 hPa NNE 6.9 km/h 13 km/h 53% 0.0 mm
12:24 29.8 °C 18.9 °C 1009.5 hPa ESE 6.9 km/h 14.8 km/h 52.2% 0.0 mm
12:29 30 °C 18.6 °C 1009.5 hPa SE 6.8 km/h 14.8 km/h 50.6% 0.0 mm
12:34 30.1 °C 18.6 °C 1009.5 hPa NNE 6.5 km/h 14.5 km/h 50% 0.0 mm
12:39 30.2 °C 18.2 °C 1009.4 hPa North 6.6 km/h 13.7 km/h 48.8% 0.0 mm
12:44 30.3 °C 18.1 °C 1009.4 hPa Este 6.9 km/h 14.5 km/h 48.1% 0.0 mm
12:49 30.5 °C 18.2 °C 1009.4 hPa NE 6.8 km/h 14 km/h 48% 0.0 mm
12:54 30.7 °C 17.8 °C 1009.3 hPa NE 6.5 km/h 14.8 km/h 45.9% 0.0 mm
12:59 30.9 °C 17.6 °C 1009.3 hPa ESE 6.6 km/h 14.5 km/h 45% 0.0 mm
13:04 31.2 °C 17.5 °C 1009.3 hPa ESE 6.9 km/h 12.9 km/h 44% 0.0 mm
13:09 31.4 °C 17.7 °C 1009.2 hPa NO 6.3 km/h 11.3 km/h 44% 0.0 mm
13:14 31.7 °C 17.8 °C 1009.2 hPa Este 5 km/h 14.8 km/h 43.6% 0.0 mm
13:19 31.9 °C 17.4 °C 1009.2 hPa SE 5.4 km/h 14.8 km/h 41.9% 0.0 mm
13:24 32.1 °C 16.6 °C 1009.0 hPa SSE 6.5 km/h 14.5 km/h 39.7% 0.0 mm
13:29 32.1 °C 16.9 °C 1009.0 hPa ENE 6.2 km/h 14.5 km/h 40.2% 0.0 mm
13:34 32.3 °C 16.5 °C 1009.0 hPa NE 5.8 km/h 18.5 km/h 38.8% 0.0 mm
13:39 32.4 °C 16.1 °C 1008.8 hPa NE 6 km/h 19.3 km/h 37.5% 0.0 mm
13:44 32.6 °C 16 °C 1008.8 hPa ENE 6.5 km/h 14.5 km/h 37.1% 0.0 mm
13:49 32.7 °C 15.7 °C 1008.8 hPa SE 6.5 km/h 20.1 km/h 36.1% 0.0 mm
13:54 32.6 °C 15.4 °C 1008.6 hPa SE 6.5 km/h 22.2 km/h 35.5% 0.0 mm
13:59 32.5 °C 15.2 °C 1008.6 hPa ESE 8.5 km/h 22.5 km/h 35.1% 0.0 mm
14:04 32.4 °C 15.2 °C 1008.6 hPa Sur 11.9 km/h 22.5 km/h 35.5% 0.0 mm
14:09 32.6 °C 15.4 °C 1008.6 hPa Este 10.7 km/h 17.7 km/h 35.7% 0.0 mm
14:14 32.8 °C 15.2 °C 1008.6 hPa SE 8.4 km/h 19 km/h 34.7% 0.0 mm
14:19 32.9 °C 15.1 °C 1008.6 hPa ESE 9.2 km/h 19.3 km/h 34.3% 0.0 mm
14:24 32.7 °C 15.2 °C 1008.5 hPa SE 11.1 km/h 17.7 km/h 35% 0.0 mm
14:29 32.6 °C 15.2 °C 1008.5 hPa SSO 10.3 km/h 16.7 km/h 35.1% 0.0 mm
14:34 32.8 °C 16 °C 1008.5 hPa SSE 8.7 km/h 22.2 km/h 36.6% 0.0 mm
14:39 32.9 °C 16.6 °C 1008.3 hPa SE 9.5 km/h 24.5 km/h 37.7% 0.0 mm
14:44 33 °C 16.7 °C 1008.3 hPa SE 11.1 km/h 26.2 km/h 37.9% 0.0 mm
14:49 32.8 °C 17 °C 1008.3 hPa SE 12.3 km/h 25.9 km/h 38.9% 0.0 mm
14:54 32.9 °C 17.6 °C 1008.2 hPa ESE 14.8 km/h 25.9 km/h 40.3% 0.0 mm
14:59 32.9 °C 17.3 °C 1008.2 hPa ESE 14.8 km/h 24.1 km/h 39.5% 0.0 mm
15:04 32.8 °C 17.6 °C 1008.2 hPa ESE 14.8 km/h 30.6 km/h 40.2% 0.0 mm
15:09 32.9 °C 16.9 °C 1008.1 hPa ESE 14.5 km/h 30.6 km/h 38.5% 0.0 mm
15:14 32.9 °C 17 °C 1008.1 hPa ESE 14 km/h 27.4 km/h 38.7% 0.0 mm
15:19 32.8 °C 16.7 °C 1008.1 hPa Este 13.1 km/h 22.5 km/h 38.1% 0.0 mm
15:24 32.7 °C 16.8 °C 1008.0 hPa SE 11.1 km/h 26.2 km/h 38.7% 0.0 mm
15:29 32.8 °C 16.7 °C 1008.0 hPa ESE 12.3 km/h 25.9 km/h 38.1% 0.0 mm
15:34 33.1 °C 16.9 °C 1008.0 hPa ESE 14.8 km/h 27.8 km/h 38.2% 0.0 mm
15:39 33.2 °C 16.5 °C 1007.9 hPa ESE 14.5 km/h 27.4 km/h 37% 0.0 mm
15:44 32.9 °C 16.4 °C 1007.9 hPa ESE 14 km/h 24.1 km/h 37.3% 0.0 mm
15:49 32.8 °C 16.3 °C 1007.9 hPa ESE 13.9 km/h 27.8 km/h 37.1% 0.0 mm
15:54 32.8 °C 16.2 °C 1007.9 hPa ESE 13.7 km/h 27.4 km/h 37.1% 0.0 mm
15:59 32.9 °C 16.3 °C 1007.9 hPa ESE 14.1 km/h 26.2 km/h 37% 0.0 mm
16:04 32.9 °C 16.6 °C 1007.9 hPa ESE 14.8 km/h 29.8 km/h 37.6% 0.0 mm
16:09 32.8 °C 16.6 °C 1007.9 hPa ESE 15.9 km/h 30.6 km/h 37.9% 0.0 mm
16:14 32.8 °C 16.7 °C 1007.9 hPa ESE 18 km/h 29.8 km/h 38.2% 0.0 mm
16:19 32.7 °C 16.5 °C 1007.9 hPa ESE 18 km/h 30.6 km/h 38% 0.0 mm
16:24 32.7 °C 16.6 °C 1007.8 hPa SE 18 km/h 29 km/h 38.3% 0.0 mm
16:29 32.7 °C 16.7 °C 1007.8 hPa ESE 17.5 km/h 25.9 km/h 38.4% 0.0 mm
16:34 32.8 °C 16.8 °C 1007.8 hPa SE 16.4 km/h 25.7 km/h 38.5% 0.0 mm
16:39 33 °C 16.8 °C 1007.7 hPa ESE 16.1 km/h 29.8 km/h 38% 0.0 mm
16:44 32.9 °C 16.7 °C 1007.7 hPa ESE 15.6 km/h 30.6 km/h 38% 0.0 mm
16:49 32.8 °C 16.8 °C 1007.7 hPa ESE 15.8 km/h 25.7 km/h 38.3% 0.0 mm
16:54 33.1 °C 17 °C 1007.6 hPa SE 16.1 km/h 22.5 km/h 38.4% 0.0 mm
16:59 33.1 °C 16.9 °C 1007.6 hPa SE 15.5 km/h 30.6 km/h 38% 0.0 mm
17:04 32.8 °C 16.6 °C 1007.7 hPa SE 14 km/h 30.6 km/h 38% 0.0 mm
17:09 32.7 °C 16.1 °C 1007.7 hPa SE 15.1 km/h 25.9 km/h 37% 0.0 mm
17:14 32.7 °C 16.2 °C 1007.7 hPa SE 17.2 km/h 25.9 km/h 37.1% 0.0 mm
17:19 32.7 °C 16.1 °C 1007.7 hPa SSE 16.7 km/h 27.4 km/h 37% 0.0 mm
17:24 32.8 °C 16.2 °C 1007.5 hPa SE 15.6 km/h 27.8 km/h 37.1% 0.0 mm
17:29 32.8 °C 16.2 °C 1007.5 hPa SE 15.8 km/h 26.2 km/h 37% 0.0 mm
17:34 32.7 °C 16.1 °C 1007.5 hPa SE 16.1 km/h 25.9 km/h 37% 0.0 mm
17:39 32.6 °C 16.2 °C 1007.5 hPa ESE 16.2 km/h 25.7 km/h 37.5% 0.0 mm
17:44 32.6 °C 16.2 °C 1007.5 hPa SE 16.4 km/h 24.1 km/h 37.4% 0.0 mm
17:49 32.4 °C 16.1 °C 1007.5 hPa ESE 16.7 km/h 25.6 km/h 37.6% 0.0 mm
17:54 32.6 °C 16.1 °C 1007.5 hPa ESE 17.2 km/h 25.7 km/h 37.3% 0.0 mm
17:59 32.4 °C 16.2 °C 1007.5 hPa ESE 16.9 km/h 27.8 km/h 37.7% 0.0 mm
18:04 32.5 °C 16.3 °C 1007.5 hPa SE 16.4 km/h 27.4 km/h 37.8% 0.0 mm
18:09 32.6 °C 16.2 °C 1007.4 hPa SE 16.2 km/h 24.5 km/h 37.5% 0.0 mm
18:14 32.4 °C 16.4 °C 1007.4 hPa SE 15.6 km/h 28.2 km/h 38.3% 0.0 mm
18:19 32.3 °C 16.2 °C 1007.4 hPa SE 15.6 km/h 27.4 km/h 38.2% 0.0 mm
18:24 32.2 °C 16.2 °C 1007.4 hPa ESE 15.6 km/h 29.6 km/h 38.3% 0.0 mm
18:29 32.3 °C 16.2 °C 1007.4 hPa SE 15.1 km/h 29 km/h 38% 0.0 mm
18:34 32.3 °C 16.1 °C 1007.4 hPa ESE 14 km/h 25.7 km/h 38% 0.0 mm
18:39 32.2 °C 16.1 °C 1007.3 hPa SE 14.6 km/h 24.1 km/h 38% 0.0 mm
18:44 32.3 °C 16.1 °C 1007.3 hPa SE 15.6 km/h 22.5 km/h 37.8% 0.0 mm
18:49 32.3 °C 16.1 °C 1007.4 hPa SE 15 km/h 23.7 km/h 38% 0.0 mm
18:54 32.2 °C 16.1 °C 1007.4 hPa SE 13.7 km/h 25.6 km/h 38% 0.0 mm
18:59 32.2 °C 16 °C 1007.4 hPa ESE 14.1 km/h 25.9 km/h 38% 0.0 mm
19:04 32.1 °C 16.2 °C 1007.4 hPa SE 14.8 km/h 25.7 km/h 38.4% 0.0 mm
19:09 32.1 °C 16.4 °C 1007.4 hPa SE 14.5 km/h 24.1 km/h 39% 0.0 mm
19:14 32.1 °C 16.4 °C 1007.4 hPa SE 14 km/h 24.1 km/h 39% 0.0 mm
19:19 32 °C 16.3 °C 1007.4 hPa SE 14 km/h 25.9 km/h 39% 0.0 mm
19:24 32 °C 15.9 °C 1007.3 hPa SE 14 km/h 25.9 km/h 38.2% 0.0 mm
19:29 32 °C 16 °C 1007.3 hPa SE 13.3 km/h 25.7 km/h 38.2% 0.0 mm
19:34 31.9 °C 15.8 °C 1007.3 hPa SE 11.9 km/h 22.5 km/h 38% 0.0 mm
19:39 31.8 °C 16.1 °C 1007.3 hPa ESE 12.3 km/h 22.5 km/h 38.9% 0.0 mm
19:44 31.8 °C 15.8 °C 1007.3 hPa ESE 13 km/h 22.5 km/h 38.3% 0.0 mm
19:49 31.7 °C 16 °C 1007.4 hPa SE 13.3 km/h 22.5 km/h 38.9% 0.0 mm
19:54 31.6 °C 15.9 °C 1007.4 hPa ESE 14 km/h 22.5 km/h 38.9% 0.0 mm
19:59 31.6 °C 15.7 °C 1007.4 hPa ESE 13.7 km/h 22.5 km/h 38.4% 0.0 mm
20:04 31.6 °C 15.8 °C 1007.4 hPa ESE 13 km/h 22.5 km/h 38.5% 0.0 mm
20:09 31.6 °C 15.9 °C 1007.4 hPa ESE 12.7 km/h 19.3 km/h 39% 0.0 mm
20:14 31.4 °C 15.7 °C 1007.4 hPa ESE 11.9 km/h 19.3 km/h 38.8% 0.0 mm
20:19 31.4 °C 15.5 °C 1007.5 hPa ESE 12 km/h 19.8 km/h 38.2% 0.0 mm
20:24 31.3 °C 15.3 °C 1007.5 hPa ESE 12.2 km/h 20.9 km/h 38% 0.0 mm
20:29 31.3 °C 15.3 °C 1007.5 hPa ESE 11.9 km/h 20.9 km/h 38% 0.0 mm
20:34 31.2 °C 15.2 °C 1007.6 hPa ESE 11.1 km/h 19.3 km/h 38% 0.0 mm
20:39 31.1 °C 15.1 °C 1007.6 hPa ESE 10.8 km/h 19.3 km/h 38% 0.0 mm
20:44 31.1 °C 15.3 °C 1007.6 hPa ESE 10.3 km/h 18 km/h 38.5% 0.0 mm
20:49 30.9 °C 15.3 °C 1007.7 hPa ESE 10.6 km/h 19.3 km/h 38.9% 0.0 mm
20:54 30.7 °C 15.2 °C 1007.7 hPa ESE 11.1 km/h 19.3 km/h 39% 0.0 mm
20:59 30.7 °C 15.1 °C 1007.7 hPa ESE 10.8 km/h 17.2 km/h 39% 0.0 mm
21:04 30.6 °C 15.2 °C 1007.9 hPa ESE 10.3 km/h 17.7 km/h 39.5% 0.0 mm
21:09 30.4 °C 15.3 °C 1007.9 hPa ESE 10.1 km/h 16.7 km/h 40% 0.0 mm
21:14 30.2 °C 15.1 °C 1007.9 hPa ESE 9.5 km/h 16.7 km/h 40% 0.0 mm
21:19 30.1 °C 15 °C 1008.0 hPa ESE 10.3 km/h 17.2 km/h 40% 0.0 mm
21:24 30 °C 15 °C 1008.0 hPa ESE 11.9 km/h 17.7 km/h 40.1% 0.0 mm
21:29 29.9 °C 14.8 °C 1008.0 hPa ESE 11.4 km/h 18.5 km/h 40% 0.0 mm
21:34 29.8 °C 15 °C 1008.2 hPa ESE 10.3 km/h 19.3 km/h 40.6% 0.0 mm
21:39 29.7 °C 15.1 °C 1008.2 hPa ESE 10.8 km/h 22.2 km/h 41% 0.0 mm
21:44 29.6 °C 15 °C 1008.2 hPa Este 11.9 km/h 22.5 km/h 41.2% 0.0 mm
21:49 29.5 °C 15.2 °C 1008.3 hPa Este 10.7 km/h 13 km/h 42% 0.0 mm
21:54 29.4 °C 15.2 °C 1008.3 hPa NE 8.4 km/h 12.9 km/h 42.2% 0.0 mm
21:59 29.2 °C 15.7 °C 1008.3 hPa NNE 7.8 km/h 14.8 km/h 43.8% 0.0 mm
22:04 28.9 °C 16.8 °C 1008.7 hPa NNE 6.9 km/h 15.6 km/h 48% 0.0 mm
22:09 28.6 °C 17.4 °C 1008.7 hPa NE 7.9 km/h 16.7 km/h 50.8% 0.0 mm
22:14 28.3 °C 18.3 °C 1008.7 hPa NE 10 km/h 16.1 km/h 54.6% 0.0 mm
22:19 28.1 °C 18.7 °C 1008.9 hPa NE 10 km/h 16.7 km/h 56.5% 0.0 mm
22:24 27.9 °C 19.2 °C 1008.9 hPa NE 10 km/h 18.5 km/h 59.1% 0.0 mm
22:29 27.7 °C 19.6 °C 1008.9 hPa NE 10.1 km/h 19.3 km/h 61.6% 0.0 mm
22:34 27.4 °C 19.8 °C 1009.1 hPa NE 10.3 km/h 23.3 km/h 63.5% 0.0 mm
22:39 27.1 °C 20.2 °C 1009.1 hPa NE 10.9 km/h 24.1 km/h 66.1% 0.0 mm
22:44 26.8 °C 20.5 °C 1009.1 hPa NE 12.2 km/h 20.4 km/h 68.2% 0.0 mm
22:49 26.6 °C 20.6 °C 1009.3 hPa NNE 12.2 km/h 24.1 km/h 69.7% 0.0 mm
22:54 26.3 °C 20.7 °C 1009.3 hPa NE 12.2 km/h 24.1 km/h 70.9% 0.0 mm
22:59 26.2 °C 20.8 °C 1009.3 hPa NNE 12.5 km/h 22.2 km/h 71.9% 0.0 mm
23:04 26.1 °C 20.7 °C 1009.5 hPa NNE 13 km/h 22.5 km/h 72.1% 0.0 mm
23:09 26.1 °C 20.8 °C 1009.5 hPa NNE 13 km/h 19.3 km/h 73% 0.0 mm
23:14 25.9 °C 20.7 °C 1009.5 hPa NNE 13 km/h 19.3 km/h 73% 0.0 mm
23:19 25.9 °C 20.7 °C 1009.6 hPa NNE 13 km/h 19.3 km/h 73.3% 0.0 mm
23:24 25.8 °C 20.8 °C 1009.6 hPa NNE 13 km/h 20.9 km/h 74% 0.0 mm
23:29 25.7 °C 20.9 °C 1009.6 hPa NNE 13.3 km/h 22.5 km/h 74.8% 0.0 mm
23:34 25.7 °C 20.9 °C 1009.6 hPa NE 13.7 km/h 22.5 km/h 75% 0.0 mm
23:39 25.5 °C 20.9 °C 1009.6 hPa NNE 13.7 km/h 20.9 km/h 75.9% 0.0 mm
23:44 25.4 °C 20.9 °C 1009.6 hPa NE 13.7 km/h 22 km/h 76.4% 0.0 mm
23:49 25.3 °C 21 °C 1009.8 hPa NNE 13.4 km/h 22.5 km/h 77% 0.0 mm
23:54 25.2 °C 20.9 °C 1009.8 hPa NE 13 km/h 22.5 km/h 77% 0.0 mm
23:59 25.2 °C 20.9 °C 1009.8 hPa NE 12.3 km/h 19.3 km/h 77% 0.0 mm
Murcia-Puente Tocinos, España
Compliments of Weather Underground - 2.75 mb

La estación de MeteoMurcia.com, publica sus datos en los siguientes proyectos:

Weather Underground PWS IMURCIAP2 Meteoclimatic www.awekas.at

W3Counter
Web Analytics